Time;durP1;ratioP1;P1;durP2;ratioP2;P2;SDS_P1;SDS_P2;PMS_P1;PMS_P2;Temp;Humidity;BMP_temperature;BMP_pressure;BME280_temperature;BME280_humidity;BME280_pressure;Samples;Min_cycle;Max_cycle;Signal;HPM_P1;HPM_P2
2022/06/19 00:01:56;;;;;;;28.40;9.30;;;24.80;99.90;;;;;;4992563;28;20030;-62
2022/06/19 00:04:24;;;;;;;32.55;9.80;;;24.80;99.90;;;;;;4978932;28;20051;-62
2022/06/19 00:06:50;;;;;;;31.58;9.07;;;24.60;99.90;;;;;;4982725;28;20404;-62
2022/06/19 00:09:16;;;;;;;30.25;8.93;;;24.80;99.90;;;;;;4982874;28;20042;-62
2022/06/19 00:11:42;;;;;;;33.67;9.00;;;24.70;99.90;;;;;;4982476;28;20113;-62
2022/06/19 00:14:08;;;;;;;31.75;9.15;;;24.80;99.90;;;;;;4978220;28;20121;-61
2022/06/19 00:16:35;;;;;;;31.88;9.55;;;25.00;99.90;;;;;;4979482;28;20027;-61
2022/06/19 00:19:01;;;;;;;32.25;9.55;;;25.00;99.90;;;;;;4982141;28;20039;-61
2022/06/19 00:21:27;;;;;;;35.42;9.90;;;24.90;99.90;;;;;;4983000;28;20027;-62
2022/06/19 00:23:53;;;;;;;30.42;9.65;;;24.80;99.90;;;;;;4982671;28;20038;-61
2022/06/19 00:26:19;;;;;;;30.73;10.02;;;24.80;99.90;;;;;;4977982;28;20437;-61
2022/06/19 00:28:46;;;;;;;29.83;9.70;;;24.60;99.90;;;;;;4990702;28;20034;-62
2022/06/19 00:31:13;;;;;;;30.45;9.27;;;24.70;99.90;;;;;;4989348;28;20058;-61
2022/06/19 00:33:39;;;;;;;33.28;9.23;;;24.40;99.90;;;;;;4988631;28;20029;-61
2022/06/19 00:36:05;;;;;;;28.58;8.98;;;24.60;99.90;;;;;;4988953;28;20060;-62
2022/06/19 00:38:32;;;;;;;32.15;10.07;;;24.60;99.90;;;;;;4990668;28;20022;-61
2022/06/19 00:40:59;;;;;;;26.90;8.98;;;24.40;99.90;;;;;;4991730;28;20169;-62
2022/06/19 00:43:25;;;;;;;26.70;8.32;;;24.50;99.90;;;;;;4989335;28;20025;-60
2022/06/19 00:45:51;;;;;;;30.02;9.30;;;24.70;99.90;;;;;;4988638;28;20038;-61
2022/06/19 00:48:37;;;;;;;24.98;8.52;;;24.70;99.90;;;;;;4988248;28;20039;-62
2022/06/19 00:51:05;;;;;;;29.17;9.80;;;24.50;99.90;;;;;;4988833;28;20026;-62
2022/06/19 00:53:43;;;;;;;25.85;9.07;;;24.20;99.90;;;;;;4990397;28;20030;-62
2022/06/19 00:56:16;;;;;;;32.67;9.05;;;23.60;99.90;;;;;;4992697;28;20054;-62
2022/06/19 00:58:44;;;;;;;;;;;23.90;99.90;;;;;;4990019;28;20034;-62
2022/06/19 01:01:17;;;;;;;28.10;8.57;;;24.00;99.90;;;;;;4980853;28;19914;-62
2022/06/19 01:04:02;;;;;;;29.90;9.50;;;24.30;99.90;;;;;;4981800;28;20027;-61
2022/06/19 01:06:28;;;;;;;26.33;8.77;;;23.50;99.90;;;;;;4983077;28;20042;-61
2022/06/19 01:08:56;;;;;;;29.52;9.32;;;23.90;99.90;;;;;;4988427;28;20023;-62
2022/06/19 01:11:23;;;;;;;26.92;9.05;;;23.10;99.90;;;;;;4991081;28;20034;-61
2022/06/19 01:13:50;;;;;;;29.00;8.98;;;23.40;99.90;;;;;;4989590;28;20032;-62
2022/06/19 01:16:16;;;;;;;25.60;8.75;;;23.70;99.90;;;;;;4988632;28;20077;-62
2022/06/19 01:18:42;;;;;;;26.58;9.10;;;23.60;99.90;;;;;;4987968;28;20038;-62
2022/06/19 01:21:20;;;;;;;27.35;8.63;;;23.70;99.90;;;;;;4987916;28;20321;-61
2022/06/19 01:24:06;;;;;;;28.10;9.30;;;24.00;99.90;;;;;;4987954;28;20093;-60
2022/06/19 01:26:39;;;;;;;24.90;8.55;;;23.50;99.90;;;;;;4989437;28;20031;-61
2022/06/19 01:29:05;;;;;;;27.60;8.93;;;23.60;99.90;;;;;;4991685;28;20109;-62
2022/06/19 01:31:45;;;;;;;29.38;9.30;;;23.50;99.90;;;;;;4988191;28;20113;-62
2022/06/19 01:34:29;;;;;;;33.20;9.77;;;22.70;99.90;;;;;;4992821;28;20034;-62
2022/06/19 01:36:57;;;;;;;;;;;23.30;99.90;;;;;;4983136;28;20049;-60
2022/06/19 01:39:24;;;;;;;28.67;9.55;;;23.40;99.90;;;;;;4981459;28;20454;-62
2022/06/19 01:41:50;;;;;;;28.33;10.10;;;23.80;99.90;;;;;;4981242;28;20483;-61
2022/06/19 01:44:16;;;;;;;31.02;9.10;;;23.40;99.90;;;;;;4976962;28;20093;-61
2022/06/19 01:46:41;;;;;;;32.38;10.30;;;23.40;99.90;;;;;;4976985;28;20081;-61
2022/06/19 01:49:07;;;;;;;28.50;9.98;;;23.40;99.90;;;;;;4987783;28;20077;-62
2022/06/19 01:51:33;;;;;;;28.48;8.70;;;23.20;99.90;;;;;;4987966;28;20023;-62
2022/06/19 01:54:15;;;;;;;27.75;9.45;;;23.00;99.90;;;;;;4987504;28;20034;-61
2022/06/19 01:56:41;;;;;;;34.63;10.30;;;22.90;99.90;;;;;;4988057;28;20520;-62
2022/06/19 01:59:10;;;;;;;31.23;10.07;;;22.50;99.90;;;;;;4991085;28;20073;-61
2022/06/19 02:01:37;;;;;;;29.20;9.05;;;22.50;99.90;;;;;;4988357;28;20061;-62
2022/06/19 02:04:05;;;;;;;27.70;9.52;;;23.20;99.90;;;;;;4993018;28;20030;-61
2022/06/19 02:06:37;;;;;;;35.20;10.13;;;23.00;99.90;;;;;;4987898;28;20407;-61
2022/06/19 02:09:05;;;;;;;29.70;9.55;;;22.80;99.90;;;;;;4985599;28;20030;-61
2022/06/19 02:11:33;;;;;;;31.92;9.95;;;22.50;99.90;;;;;;4995573;28;20031;-61
2022/06/19 02:14:01;;;;;;;31.90;10.02;;;22.60;99.90;;;;;;4996971;28;20491;-61
2022/06/19 02:16:27;;;;;;;36.75;11.60;;;21.90;99.90;;;;;;4985110;28;20027;-61
2022/06/19 02:18:54;;;;;;;40.75;11.60;;;21.40;99.90;;;;;;4987257;28;20034;-62
2022/06/19 02:21:32;;;;;;;26.75;9.43;;;21.30;99.90;;;;;;4987446;28;20555;-61
2022/06/19 02:23:58;;;;;;;30.58;9.98;;;22.60;99.90;;;;;;4987156;28;20395;-61
2022/06/19 02:26:24;;;;;;;28.88;9.95;;;23.30;99.90;;;;;;4984750;28;20030;-62
2022/06/19 02:28:50;;;;;;;29.45;9.88;;;23.50;99.90;;;;;;4982726;28;20102;-61
2022/06/19 02:31:18;;;;;;;28.23;10.00;;;23.50;99.90;;;;;;4985019;28;20034;-62
2022/06/19 02:33:48;;;;;;;30.85;10.57;;;23.50;99.90;;;;;;4987125;28;20097;-62
2022/06/19 02:36:39;;;;;;;25.85;9.77;;;23.60;99.90;;;;;;4987066;28;20043;-61
2022/06/19 02:39:34;;;;;;;30.90;9.85;;;23.60;99.90;;;;;;4987163;28;20034;-61
2022/06/19 02:42:21;;;;;;;26.23;9.38;;;23.20;99.90;;;;;;4986847;28;20042;-60
2022/06/19 02:44:56;;;;;;;27.92;9.20;;;23.40;99.90;;;;;;4987417;28;20044;-60
2022/06/19 02:47:23;;;;;;;29.95;9.25;;;23.30;99.90;;;;;;4984245;28;20046;-61
2022/06/19 02:49:49;;;;;;;27.83;9.38;;;23.30;99.90;;;;;;4982648;28;20031;-60
2022/06/19 02:52:15;;;;;;;25.08;9.07;;;23.30;99.90;;;;;;4986357;28;20039;-62
2022/06/19 02:54:41;;;;;;;25.00;9.05;;;23.30;99.90;;;;;;4986954;28;20453;-61
2022/06/19 02:57:08;;;;;;;25.00;8.82;;;23.50;99.90;;;;;;4986099;28;20547;-62
2022/06/19 02:59:35;;;;;;;30.17;9.77;;;23.80;99.90;;;;;;4986387;28;20453;-62
2022/06/19 03:02:01;;;;;;;28.58;9.13;;;23.50;99.90;;;;;;4982501;28;20104;-61
2022/06/19 03:04:41;;;;;;;24.67;8.80;;;23.30;99.90;;;;;;4984448;28;20035;-61
2022/06/19 03:07:07;;;;;;;28.05;9.48;;;23.50;99.90;;;;;;4993698;28;20100;-59
2022/06/19 03:09:32;;;;;;;24.17;8.90;;;23.60;99.90;;;;;;4993192;28;20034;-62
2022/06/19 03:11:58;;;;;;;29.95;9.07;;;23.70;99.90;;;;;;4993464;28;20452;-60
2022/06/19 03:14:24;;;;;;;24.98;9.48;;;23.60;99.90;;;;;;4993049;28;20037;-61
2022/06/19 03:16:51;;;;;;;27.02;9.32;;;23.50;99.90;;;;;;4992794;28;20033;-61
2022/06/19 03:19:17;;;;;;;27.63;9.00;;;23.50;99.90;;;;;;4991114;28;20045;-61
2022/06/19 03:21:42;;;;;;;26.77;9.48;;;23.40;99.90;;;;;;4990146;28;20031;-61
2022/06/19 03:24:09;;;;;;;28.90;9.63;;;23.50;99.90;;;;;;4989932;28;20037;-61
2022/06/19 03:26:35;;;;;;;23.83;8.48;;;23.50;99.90;;;;;;4990533;28;20399;-60
2022/06/19 03:29:00;;;;;;;25.98;9.00;;;23.40;99.90;;;;;;4994558;28;20050;-62
2022/06/19 03:31:28;;;;;;;27.20;8.90;;;23.40;99.90;;;;;;4990613;28;20022;-62
2022/06/19 03:33:54;;;;;;;23.50;8.73;;;23.50;99.90;;;;;;4984892;28;20126;-62
2022/06/19 03:36:21;;;;;;;27.48;9.93;;;23.30;99.90;;;;;;4983795;28;20034;-62
2022/06/19 03:38:47;;;;;;;26.60;8.60;;;23.50;99.90;;;;;;4983523;28;20026;-61
2022/06/19 03:41:13;;;;;;;27.27;9.90;;;23.40;99.90;;;;;;4978796;28;20546;-60
2022/06/19 03:43:39;;;;;;;25.35;9.43;;;23.40;99.90;;;;;;4991447;28;20496;-62
2022/06/19 03:46:12;;;;;;;25.77;9.27;;;23.20;99.90;;;;;;4983254;28;20027;-61
2022/06/19 03:48:50;;;;;;;25.98;9.43;;;23.20;99.90;;;;;;4983306;28;20038;-61
2022/06/19 03:51:16;;;;;;;24.42;9.07;;;23.40;99.90;;;;;;4983151;28;20089;-62
2022/06/19 03:53:43;;;;;;;26.10;9.45;;;23.30;99.90;;;;;;4976299;28;20042;-62
2022/06/19 03:56:14;;;;;;;25.20;8.65;;;23.30;99.90;;;;;;4978150;28;20042;-62
2022/06/19 03:58:45;;;;;;;25.50;9.68;;;23.30;99.90;;;;;;4990202;28;20081;-62
2022/06/19 04:01:25;;;;;;;24.73;9.13;;;23.40;99.90;;;;;;4989993;28;20027;-62
2022/06/19 04:03:52;;;;;;;25.33;9.48;;;23.30;99.90;;;;;;4989489;28;20495;-62
2022/06/19 04:06:21;;;;;;;26.95;10.10;;;23.20;99.90;;;;;;4989375;28;20061;-61
2022/06/19 04:08:47;;;;;;;23.08;9.60;;;23.20;99.90;;;;;;4989742;28;20069;-62
2022/06/19 04:11:16;;;;;;;26.25;9.75;;;23.10;99.90;;;;;;4993625;28;20496;-61
2022/06/19 04:13:42;;;;;;;21.27;8.73;;;23.20;99.90;;;;;;4978450;28;20085;-62
2022/06/19 04:16:13;;;;;;;23.98;8.45;;;23.00;99.90;;;;;;4982606;28;20006;-61
2022/06/19 04:18:39;;;;;;;22.67;8.70;;;23.20;99.90;;;;;;4983089;28;20058;-62
2022/06/19 04:21:05;;;;;;;26.15;9.50;;;23.20;99.90;;;;;;4981099;28;20058;-61
2022/06/19 04:23:30;;;;;;;25.20;9.57;;;23.30;99.90;;;;;;4990626;28;20049;-62
2022/06/19 04:25:56;;;;;;;23.15;8.90;;;23.10;99.90;;;;;;4991531;28;20026;-61
2022/06/19 04:28:24;;;;;;;22.17;9.27;;;23.10;99.90;;;;;;4989824;28;20034;-61
2022/06/19 04:30:51;;;;;;;23.05;8.93;;;23.10;99.90;;;;;;4988985;28;20037;-61
2022/06/19 04:33:18;;;;;;;24.88;9.48;;;23.20;99.90;;;;;;4989215;28;20038;-62
2022/06/19 04:35:46;;;;;;;26.35;9.65;;;23.10;99.90;;;;;;4988853;28;20035;-61
2022/06/19 04:38:11;;;;;;;26.35;9.70;;;23.00;99.90;;;;;;4992789;28;20296;-60
2022/06/19 04:40:38;;;;;;;22.92;9.18;;;22.90;99.90;;;;;;4989811;28;20026;-62
2022/06/19 04:43:04;;;;;;;26.50;9.50;;;23.00;99.90;;;;;;4988689;28;20113;-60
2022/06/19 04:45:31;;;;;;;21.25;8.90;;;22.90;99.90;;;;;;4989063;28;20077;-61
2022/06/19 04:47:57;;;;;;;20.05;9.38;;;23.00;99.90;;;;;;4988593;28;20034;-61
2022/06/19 04:50:23;;;;;;;23.52;8.85;;;22.90;99.90;;;;;;4993020;28;20117;-61
2022/06/19 04:52:49;;;;;;;22.63;9.30;;;23.00;99.90;;;;;;4977175;28;20556;-61
2022/06/19 04:55:16;;;;;;;27.25;9.23;;;23.00;99.90;;;;;;4980974;28;20224;-62
2022/06/19 04:57:42;;;;;;;23.02;9.07;;;22.90;99.90;;;;;;4982342;28;20531;-61
2022/06/19 05:00:14;;;;;;;25.10;9.25;;;23.10;99.90;;;;;;4980800;28;20032;-61
2022/06/19 05:02:40;;;;;;;25.08;9.70;;;22.90;99.90;;;;;;4988976;28;20114;-61
2022/06/19 05:05:07;;;;;;;28.52;9.52;;;22.90;99.90;;;;;;4992406;28;20022;-62
2022/06/19 05:07:34;;;;;;;26.70;9.40;;;23.00;99.90;;;;;;4988891;28;20042;-60
2022/06/19 05:10:00;;;;;;;24.75;9.75;;;22.90;99.90;;;;;;4988234;28;20031;-61
2022/06/19 05:12:27;;;;;;;22.15;9.43;;;22.70;99.90;;;;;;4988170;28;20061;-60
2022/06/19 05:14:53;;;;;;;24.92;9.10;;;22.70;99.90;;;;;;4988423;28;20018;-62
2022/06/19 05:17:19;;;;;;;23.70;9.13;;;22.60;99.90;;;;;;4991632;28;20440;-61
2022/06/19 05:19:45;;;;;;;24.00;8.25;;;22.80;99.90;;;;;;4989557;28;20392;-60
2022/06/19 05:22:11;;;;;;;22.02;9.07;;;22.70;99.90;;;;;;4988218;28;20022;-61
2022/06/19 05:24:37;;;;;;;22.40;8.68;;;22.60;99.90;;;;;;4987910;28;20033;-60
2022/06/19 05:27:09;;;;;;;23.35;8.85;;;22.60;99.90;;;;;;4988065;28;20034;-62
2022/06/19 05:29:38;;;;;;;24.03;9.67;;;22.80;99.90;;;;;;4989155;28;20023;-60
2022/06/19 05:32:05;;;;;;;24.00;9.25;;;22.70;99.90;;;;;;4992098;28;20636;-62
2022/06/19 05:34:36;;;;;;;24.20;9.48;;;22.80;99.90;;;;;;4988499;28;20054;-61
2022/06/19 05:37:03;;;;;;;25.92;9.43;;;22.80;99.90;;;;;;4980941;28;20035;-60
2022/06/19 05:39:28;;;;;;;25.25;9.48;;;23.00;99.90;;;;;;4981313;28;20034;-61
2022/06/19 05:41:57;;;;;;;23.63;9.95;;;22.80;99.90;;;;;;4981251;28;20026;-61
2022/06/19 05:44:26;;;;;;;22.60;9.23;;;22.60;99.90;;;;;;4978853;28;20407;-61
2022/06/19 05:46:53;;;;;;;21.42;9.10;;;22.70;99.90;;;;;;4976566;28;20026;-61
2022/06/19 05:49:19;;;;;;;22.65;9.27;;;22.60;99.90;;;;;;4979864;28;20042;-61
2022/06/19 05:51:46;;;;;;;21.52;9.18;;;22.70;99.90;;;;;;4980780;28;20610;-60
2022/06/19 05:54:12;;;;;;;22.20;9.00;;;22.70;99.90;;;;;;4981375;28;20027;-61
2022/06/19 05:56:37;;;;;;;21.23;8.80;;;22.80;99.90;;;;;;4980216;28;20042;-61
2022/06/19 05:59:04;;;;;;;21.92;8.13;;;22.70;99.90;;;;;;4976535;28;20037;-61
2022/06/19 06:01:31;;;;;;;18.88;7.75;;;22.70;99.90;;;;;;4978574;28;20042;-62
2022/06/19 06:03:58;;;;;;;24.77;8.10;;;22.70;99.90;;;;;;4981134;28;20034;-61
2022/06/19 06:06:29;;;;;;;21.52;8.30;;;22.80;99.90;;;;;;4980482;28;20049;-61
2022/06/19 06:08:55;;;;;;;26.50;8.68;;;22.80;99.90;;;;;;4980564;28;20031;-61
2022/06/19 06:11:21;;;;;;;23.80;7.72;;;22.70;99.90;;;;;;4978004;28;20038;-61
2022/06/19 06:13:47;;;;;;;21.35;7.80;;;22.50;99.90;;;;;;4976793;28;20098;-61
2022/06/19 06:16:16;;;;;;;22.73;7.80;;;22.60;99.90;;;;;;4979567;28;20113;-61
2022/06/19 06:18:42;;;;;;;24.27;7.68;;;22.80;99.90;;;;;;4980948;28;20035;-61
2022/06/19 06:21:12;;;;;;;22.77;7.75;;;23.00;99.90;;;;;;4980491;28;20031;-61
2022/06/19 06:23:37;;;;;;;23.48;7.95;;;22.70;99.90;;;;;;4980044;28;20495;-60
2022/06/19 06:26:18;;;;;;;22.05;7.57;;;22.80;99.90;;;;;;4976168;28;20062;-61
2022/06/19 06:28:45;;;;;;;21.80;7.47;;;22.90;99.90;;;;;;4988816;28;20030;-60
2022/06/19 06:31:12;;;;;;;22.98;8.20;;;22.90;99.90;;;;;;4980538;28;20114;-61
2022/06/19 06:33:38;;;;;;;20.90;7.43;;;22.70;99.90;;;;;;4980484;28;20094;-61
2022/06/19 06:36:04;;;;;;;19.23;7.07;;;22.70;99.90;;;;;;4980512;28;20089;-59
2022/06/19 06:38:30;;;;;;;26.33;7.28;;;22.90;99.90;;;;;;4978995;28;20061;-61
2022/06/19 06:40:56;;;;;;;21.35;7.47;;;23.30;99.90;;;;;;4976116;28;20059;-61
2022/06/19 06:43:23;;;;;;;21.25;6.85;;;24.40;99.90;;;;;;4977250;28;20033;-62
2022/06/19 06:45:48;;;;;;;21.70;7.60;;;24.50;99.90;;;;;;4980466;28;20110;-63
2022/06/19 06:48:15;;;;;;;23.88;7.15;;;24.40;99.90;;;;;;4980963;28;20170;-62
2022/06/19 06:50:41;;;;;;;21.40;6.78;;;24.00;99.90;;;;;;4984029;28;20038;-62
2022/06/19 06:53:08;;;;;;;22.73;7.03;;;24.10;99.90;;;;;;4979906;28;20030;-61
2022/06/19 06:55:44;;;;;;;24.25;7.18;;;24.10;99.90;;;;;;4980744;28;20075;-62
2022/06/19 06:58:10;;;;;;;21.65;6.82;;;23.80;99.90;;;;;;4983534;28;20023;-61
2022/06/19 07:00:37;;;;;;;24.45;7.63;;;24.40;99.90;;;;;;4984580;28;20407;-62
2022/06/19 07:03:03;;;;;;;20.02;7.03;;;24.10;99.90;;;;;;4983764;28;20041;-62
2022/06/19 07:05:30;;;;;;;24.08;7.05;;;25.40;99.90;;;;;;4982229;28;20109;-63
2022/06/19 07:07:56;;;;;;;30.00;7.80;;;24.40;99.90;;;;;;4979522;28;20122;-62
2022/06/19 07:10:22;;;;;;;38.97;8.73;;;24.00;99.90;;;;;;4985252;28;20034;-62
2022/06/19 07:12:49;;;;;;;51.50;11.00;;;23.90;99.90;;;;;;4987018;28;20026;-61
2022/06/19 07:15:15;;;;;;;40.30;9.95;;;24.20;99.90;;;;;;4984094;28;20042;-59
2022/06/19 07:17:41;;;;;;;35.38;9.15;;;25.00;99.90;;;;;;4986377;28;20113;-61
2022/06/19 07:20:08;;;;;;;27.08;7.35;;;26.20;99.90;;;;;;4983822;28;20153;-62
2022/06/19 07:22:33;;;;;;;32.95;7.10;;;27.40;99.90;;;;;;4984226;28;20023;-62
2022/06/19 07:24:59;;;;;;;25.67;7.38;;;28.40;99.90;;;;;;4986105;28;20038;-61
2022/06/19 07:27:25;;;;;;;25.55;7.03;;;27.00;99.90;;;;;;4983203;28;20084;-60
2022/06/19 07:29:51;;;;;;;24.23;7.18;;;26.20;99.90;;;;;;4987100;28;20026;-60
2022/06/19 07:32:16;;;;;;;25.33;7.40;;;26.30;99.90;;;;;;4984336;28;20037;-60
2022/06/19 07:34:42;;;;;;;25.17;7.15;;;25.90;99.90;;;;;;4983457;28;20023;-60
2022/06/19 07:37:14;;;;;;;24.05;7.35;;;30.10;99.90;;;;;;4986568;28;20019;-61
2022/06/19 07:39:41;;;;;;;23.40;7.15;;;28.20;99.90;;;;;;4981791;28;20031;-61
2022/06/19 07:42:10;;;;;;;20.75;6.53;;;27.40;99.90;;;;;;4985662;28;20459;-61
2022/06/19 07:44:37;;;;;;;24.38;6.88;;;29.70;99.90;;;;;;4982622;28;20046;-62
2022/06/19 07:52:34;;;;;;;29.08;7.20;;;26.80;99.90;;;;;;4984910;28;20158;-61
2022/06/19 07:55:00;;;;;;;29.17;7.13;;;26.60;99.90;;;;;;4983540;28;20042;-61
2022/06/19 07:57:27;;;;;;;22.27;6.68;;;26.50;99.90;;;;;;4986888;28;20042;-61
2022/06/19 07:59:52;;;;;;;27.40;7.38;;;26.50;99.90;;;;;;4987090;28;20022;-63
2022/06/19 08:02:18;;;;;;;23.35;6.32;;;27.00;99.90;;;;;;4993211;28;20521;-63
2022/06/19 08:04:45;;;;;;;19.35;6.90;;;27.50;99.90;;;;;;4991650;28;20029;-63
2022/06/19 08:07:14;;;;;;;24.85;6.95;;;27.50;99.90;;;;;;4984230;28;20039;-63
2022/06/19 08:09:41;;;;;;;22.08;6.55;;;28.10;99.90;;;;;;4982589;28;20101;-64
2022/06/19 08:12:07;;;;;;;22.00;6.22;;;29.20;99.90;;;;;;4982748;28;20045;-63
2022/06/19 08:14:33;;;;;;;19.63;6.00;;;31.40;99.90;;;;;;4978788;28;20082;-64
2022/06/19 08:16:59;;;;;;;18.15;6.13;;;31.40;99.90;;;;;;4991961;28;20054;-63
2022/06/19 08:19:25;;;;;;;19.13;5.68;;;31.90;99.70;;;;;;4990046;28;20060;-64
2022/06/19 08:21:50;;;;;;;20.23;6.65;;;32.80;98.10;;;;;;4980263;28;20038;-63
2022/06/19 08:24:17;;;;;;;17.08;5.75;;;33.00;97.50;;;;;;4982316;28;20470;-64
2022/06/19 08:26:43;;;;;;;17.88;6.53;;;31.50;97.30;;;;;;4981613;28;20112;-61
2022/06/19 08:29:09;;;;;;;21.55;5.88;;;31.40;97.20;;;;;;4977770;28;20126;-64
2022/06/19 08:31:35;;;;;;;22.98;5.57;;;30.80;97.10;;;;;;4978923;28;20110;-64
2022/06/19 08:34:02;;;;;;;21.35;5.57;;;32.80;96.50;;;;;;4983425;28;20096;-63
2022/06/19 08:36:29;;;;;;;18.15;6.07;;;32.20;96.50;;;;;;4984788;28;20110;-62
2022/06/19 08:39:00;;;;;;;21.95;6.40;;;33.70;95.40;;;;;;4981292;28;20034;-62
2022/06/19 08:41:41;;;;;;;16.23;6.03;;;33.90;94.60;;;;;;4984848;28;20033;-63
2022/06/19 08:44:25;;;;;;;17.83;6.20;;;33.70;93.60;;;;;;4983936;28;20034;-62
2022/06/19 08:47:12;;;;;;;22.05;5.97;;;33.80;93.70;;;;;;5001580;28;20444;-62
2022/06/19 08:49:47;;;;;;;20.27;5.72;;;34.00;92.90;;;;;;4983251;28;20026;-62
2022/06/19 08:52:15;;;;;;;17.30;5.72;;;33.10;93.10;;;;;;4983159;28;20495;-62
2022/06/19 08:55:15;;;;;;;20.88;5.35;;;34.20;92.20;;;;;;4982990;28;20023;-62
2022/06/19 08:57:49;;;;;;;16.40;5.88;;;32.80;92.00;;;;;;4944202;29;20373;-62
2022/06/19 09:00:27;;;;;;;17.05;5.38;;;33.90;92.10;;;;;;4946774;28;20046;-62
2022/06/19 09:02:56;;;;;;;14.95;5.18;;;34.80;90.70;;;;;;4944834;28;20488;-62
2022/06/19 09:05:44;;;;;;;13.60;5.07;;;35.40;88.00;;;;;;4945726;29;20031;-62
2022/06/19 09:08:16;;;;;;;16.88;4.82;;;34.90;88.10;;;;;;4943471;29;20043;-62
2022/06/19 09:10:51;;;;;;;12.75;5.03;;;35.10;87.20;;;;;;4945446;29;20461;-63
2022/06/19 09:13:22;;;;;;;13.57;4.82;;;35.40;86.90;;;;;;4945386;28;20482;-61
2022/06/19 09:16:00;;;;;;;12.52;4.68;;;34.80;86.10;;;;;;4943994;29;20472;-62
2022/06/19 09:18:45;;;;;;;13.60;5.30;;;35.60;85.40;;;;;;4943572;29;20031;-63
2022/06/19 09:21:19;;;;;;;15.02;5.00;;;34.50;86.40;;;;;;4948006;29;20031;-62
2022/06/19 09:23:52;;;;;;;19.55;5.22;;;33.40;89.00;;;;;;4944218;29;20107;-62
2022/06/19 09:26:29;;;;;;;11.30;4.15;;;34.90;85.90;;;;;;4942960;29;20031;-62
2022/06/19 09:29:07;;;;;;;18.83;5.18;;;36.30;85.40;;;;;;4945344;28;20042;-63
2022/06/19 09:32:12;;;;;;;12.90;4.93;;;36.00;83.00;;;;;;4943967;29;20173;-62
2022/06/19 09:34:51;;;;;;;13.95;4.97;;;36.40;82.60;;;;;;4942522;29;20046;-62
2022/06/19 09:37:20;;;;;;;13.15;4.55;;;34.60;85.60;;;;;;4946209;29;20020;-62
2022/06/19 09:39:49;;;;;;;18.52;5.30;;;33.70;86.60;;;;;;4943851;28;20773;-62
2022/06/19 09:42:42;;;;;;;14.32;4.50;;;33.40;87.10;;;;;;4943790;29;20061;-57
2022/06/19 09:45:20;;;;;;;16.98;4.57;;;35.50;84.80;;;;;;4943472;29;20032;-57
2022/06/19 09:48:00;;;;;;;12.35;5.13;;;35.90;84.50;;;;;;4943090;28;20046;-57
2022/06/19 09:50:41;;;;;;;14.82;4.82;;;35.50;85.80;;;;;;4944292;29;20086;-56
2022/06/19 09:53:19;;;;;;;14.43;4.80;;;34.60;84.10;;;;;;4943627;29;20091;-57
2022/06/19 09:55:49;;;;;;;11.70;4.38;;;35.20;84.50;;;;;;4959763;28;20049;-57
2022/06/19 09:58:25;;;;;;;12.98;4.70;;;34.70;85.30;;;;;;4983831;28;20125;-56
2022/06/19 10:00:56;;;;;;;13.10;4.68;;;34.50;84.00;;;;;;4982759;28;20030;-56
2022/06/19 10:03:45;;;;;;;14.13;4.55;;;35.00;86.10;;;;;;4983082;28;20031;-57
2022/06/19 10:06:18;;;;;;;16.35;5.13;;;35.20;86.30;;;;;;4982503;28;20570;-57
2022/06/19 10:08:52;;;;;;;16.90;4.55;;;34.90;86.00;;;;;;4983355;28;20084;-57
2022/06/19 10:11:27;;;;;;;14.73;4.47;;;35.80;84.60;;;;;;4982964;28;20096;-57
2022/06/19 10:14:15;;;;;;;13.23;4.68;;;35.40;84.50;;;;;;4981457;28;20027;-57
2022/06/19 10:16:55;;;;;;;15.27;5.18;;;34.90;83.90;;;;;;4981813;28;20037;-57
2022/06/19 10:19:44;;;;;;;15.13;4.72;;;35.60;85.60;;;;;;4983354;28;20038;-57
2022/06/19 10:22:34;;;;;;;15.18;5.07;;;35.10;84.60;;;;;;4982155;28;20037;-56
2022/06/19 10:25:19;;;;;;;15.63;4.70;;;33.40;88.30;;;;;;4983084;28;20092;-55
2022/06/19 10:27:52;;;;;;;13.30;4.60;;;33.80;88.70;;;;;;4983355;28;20053;-56
2022/06/19 10:30:22;;;;;;;;;;;34.00;83.40;;;;;;4986267;28;20035;-57
2022/06/19 10:33:22;;;;;;;12.90;4.50;;;34.00;85.80;;;;;;4983597;28;19916;-56
2022/06/19 10:36:05;;;;;;;14.63;4.72;;;33.10;89.40;;;;;;4983778;28;20027;-57
2022/06/19 10:38:52;;;;;;;15.23;5.10;;;33.40;89.00;;;;;;4983067;28;20539;-58
2022/06/19 10:44:37;;;;;;;11.43;4.78;;;33.50;88.80;;;;;;4984795;28;20074;-55
2022/06/19 10:47:16;;;;;;;14.63;4.53;;;34.10;87.80;;;;;;4983906;28;20049;-56
2022/06/19 10:50:01;;;;;;;18.30;4.68;;;34.10;87.30;;;;;;4985030;28;20081;-57
2022/06/19 10:53:18;;;;;;;15.90;5.03;;;33.50;88.80;;;;;;4983827;28;20029;-58
2022/06/19 10:56:10;;;;;;;11.52;4.70;;;33.00;90.10;;;;;;4886061;29;20123;-58
2022/06/19 10:58:36;;;;;;;13.55;5.45;;;33.30;88.30;;;;;;4887089;29;20029;-58
2022/06/19 11:01:08;;;;;;;11.32;4.70;;;33.90;88.00;;;;;;4885767;29;20434;-54
2022/06/19 11:04:09;;;;;;;15.23;4.57;;;33.10;87.30;;;;;;4890605;29;20081;-56
2022/06/19 11:06:56;;;;;;;11.18;4.80;;;32.90;86.50;;;;;;4888937;29;20045;-56
2022/06/19 11:09:38;;;;;;;11.85;4.43;;;32.90;85.90;;;;;;4887856;29;20040;-57
2022/06/19 11:12:37;;;;;;;12.45;4.82;;;33.20;85.40;;;;;;4887728;29;20537;-56
2022/06/19 11:15:09;;;;;;;13.27;4.60;;;33.00;86.10;;;;;;4888166;29;20028;-57
2022/06/19 11:17:42;;;;;;;12.55;4.47;;;32.50;88.90;;;;;;4888597;29;20028;-57
2022/06/19 11:20:20;;;;;;;13.65;4.80;;;32.30;89.20;;;;;;4887815;29;20148;-56
2022/06/19 11:22:48;;;;;;;14.27;4.68;;;32.10;89.30;;;;;;4885860;29;20169;-56
2022/06/19 11:25:20;;;;;;;12.63;4.90;;;31.40;90.40;;;;;;4891812;28;20033;-58
2022/06/19 11:28:09;;;;;;;15.00;4.43;;;31.70;90.30;;;;;;4985768;28;20038;-56
2022/06/19 11:30:51;;;;;;;12.15;4.75;;;32.00;89.30;;;;;;4989952;28;20084;-56
2022/06/19 11:33:32;;;;;;;10.23;4.55;;;31.90;89.20;;;;;;4983773;28;20073;-57
2022/06/19 11:36:02;;;;;;;14.45;4.93;;;31.90;88.70;;;;;;4985695;28;20026;-57
2022/06/19 11:38:46;;;;;;;14.02;5.18;;;31.80;89.80;;;;;;4982289;28;20023;-56
2022/06/19 11:41:15;;;;;;;14.80;5.47;;;31.60;86.80;;;;;;4993066;28;20034;-57
2022/06/19 11:43:42;;;;;;;10.52;4.75;;;30.80;88.20;;;;;;4990959;28;20078;-56
2022/06/19 11:46:19;;;;;;;13.73;4.90;;;31.00;86.40;;;;;;4989041;28;20036;-56
2022/06/19 11:48:45;;;;;;;11.02;4.40;;;31.80;86.70;;;;;;4989586;28;20038;-57
2022/06/19 11:51:28;;;;;;;11.90;4.30;;;31.50;86.50;;;;;;4989340;28;20037;-57
2022/06/19 11:53:57;;;;;;;10.68;4.43;;;31.30;86.80;;;;;;4992401;28;20026;-57
2022/06/19 11:56:30;;;;;;;10.02;3.60;;;31.70;86.70;;;;;;4979200;28;20042;-54
2022/06/19 11:58:58;;;;;;;11.25;4.32;;;31.10;86.80;;;;;;4977625;28;20038;-57
2022/06/19 12:01:44;;;;;;;12.93;4.47;;;31.40;88.30;;;;;;4992093;28;20037;-57
2022/06/19 12:04:34;;;;;;;8.77;3.83;;;31.50;87.70;;;;;;4989468;28;20511;-58
2022/06/19 12:07:21;;;;;;;15.18;4.32;;;31.20;87.80;;;;;;4983032;28;20130;-56
2022/06/19 12:10:02;;;;;;;14.02;4.13;;;31.50;85.60;;;;;;4985366;28;20093;-57
2022/06/19 12:12:31;;;;;;;9.43;4.07;;;31.30;88.20;;;;;;4988667;28;20042;-57
2022/06/19 12:15:12;;;;;;;9.10;4.13;;;31.10;88.50;;;;;;4988752;28;20023;-57
2022/06/19 12:17:39;;;;;;;13.05;4.07;;;31.30;88.90;;;;;;4990126;28;20487;-57
2022/06/19 12:20:07;;;;;;;10.88;3.92;;;31.90;86.90;;;;;;4992638;28;20026;-57
2022/06/19 12:22:50;;;;;;;13.35;4.15;;;31.80;85.60;;;;;;4988952;28;20399;-56
2022/06/19 12:25:21;;;;;;;14.82;4.82;;;32.00;88.60;;;;;;4989173;28;20487;-57
2022/06/19 12:28:13;;;;;;;13.63;4.22;;;31.60;90.70;;;;;;4988535;28;20073;-58
2022/06/19 12:31:04;;;;;;;14.38;4.53;;;30.90;91.00;;;;;;4988473;28;20089;-57
2022/06/19 12:33:45;;;;;;;13.60;4.40;;;31.40;91.10;;;;;;4988792;28;20031;-57
2022/06/19 12:36:35;;;;;;;13.00;4.45;;;31.10;90.60;;;;;;4989101;28;20411;-57
2022/06/19 12:39:02;;;;;;;12.02;4.05;;;31.40;90.90;;;;;;4988840;28;20560;-57
2022/06/19 12:41:28;;;;;;;14.52;4.90;;;31.10;91.20;;;;;;4990056;28;20026;-57
2022/06/19 12:43:59;;;;;;;14.23;4.28;;;30.70;91.40;;;;;;4990727;28;20033;-56
2022/06/19 12:46:42;;;;;;;11.18;3.80;;;31.40;91.70;;;;;;4978351;28;20042;-56
2022/06/19 12:49:18;;;;;;;15.02;5.32;;;31.60;89.50;;;;;;4993088;28;20516;-56
2022/06/19 12:52:09;;;;;;;13.32;4.35;;;31.40;90.60;;;;;;4988132;28;20034;-56
2022/06/19 12:54:42;;;;;;;11.57;4.00;;;31.30;90.80;;;;;;4988092;28;20026;-57
2022/06/19 12:57:16;;;;;;;;;;;30.90;91.20;;;;;;4988340;28;20455;-57
2022/06/19 12:59:53;;;;;;;13.23;4.35;;;31.10;91.20;;;;;;4988751;28;20409;-57
2022/06/19 13:02:28;;;;;;;13.20;4.65;;;31.00;91.90;;;;;;4977517;28;20027;-57
2022/06/19 13:05:13;;;;;;;9.85;3.97;;;30.90;91.70;;;;;;4990472;28;20030;-57
2022/06/19 13:08:03;;;;;;;14.98;3.83;;;31.10;92.10;;;;;;4989006;28;20034;-57
2022/06/19 13:10:45;;;;;;;10.75;4.00;;;30.50;92.40;;;;;;4978114;28;20386;-57